Desert Springs, Nevada Weather observations

Data are for 10 minute period ending at time listed.
 Day   Time    Ave.   Ave.  Ave.  Vector   Max.   Total    Solar   
  of    of     Air    Rel.  Wind   Wind    Wind  Precip.   Rad.    
Year   Day     Temp.  Hum.  Speed  Dir.    Gust                    
2016   (PST)    F      %     mph   deg.    mph     in.     W/m2    
------------------------------------------------------------------- 
  43   18:00   56.0    26   10.0   280     13.0    1.42      44  
  43   19:00   56.0    21    5.0   265     13.0    1.42       0  
  43   20:00   52.0    28    7.0   285     14.0    1.42       0  
  43   21:00   52.0    28    5.0   253      8.0    1.42       0  
  43   22:00   48.0    33    5.0   241      8.0    1.42       0  
  43   23:00   47.0    34    7.0   232     13.0    1.42       0  
  44    0:00   45.0    39    6.0   259     10.0    1.42       0  
  44    1:00   46.0    37    7.0   233     11.0    1.42       0  
  44    2:00   46.0    36    5.0   236      9.0    1.42       0  
  44    3:00   46.0    37    4.0   235      6.0    1.42       0  
  44    4:00   42.0    44    5.0   246      7.0    1.42       0  
  44    5:00   43.0    41    4.0   238      9.0    1.42       0  
  44    6:00   41.0    45    7.0   229      9.0    1.42       0  
  44    7:00   43.0    36    6.0   236      9.0    1.42       0  
  44    8:00   42.0    44    5.0   356      9.0    1.42      41  
  44    9:00   41.0    59    3.0   287     12.0    1.42     253  
  44   10:00   48.0    48    3.0   299      7.0    1.42     436  
  44   11:00   53.0    41    2.0   114      8.0    1.42     580  
  44   12:00   54.0    40    5.0   122     10.0    1.42     673  
  44   13:00   57.0    29    2.0   311      9.0    1.42     706  
  44   14:00   59.0    24    4.0   143      8.0    1.42     676  
  44   15:00   60.0    18    5.0   165     10.0    1.42     585  
  44   16:00   61.0    17    4.0   284      8.0    1.42     441  
  44   17:00   58.0    26    7.0   338     13.0    1.42     230  

Return to Desert Springs, Nevada graphs page.


Western Regional Climate Center,wrcc@dri.edu